CheckWX is a tool to help pilots better visualize weather data.  It is not intended as a substitute for an official pre-flight weather briefing.

03:50:36 UTC

VTSB METAR
Surat Thani Airport
Surat Thani, Thailand
Current

51 mins ago

VTSB 180300Z 20007KT 9999 FEW020 29/25 Q1012
Observed
Sep-18 @ 03:00 UTC
Wind
  • 200° at 7 KTS
Visibility
10,000+ meters
Flight Rules
VFR
Cloud Levels
  • Few at 2,000' AGL
Temperature
29°C / 84°F
Dewpoint
25°C / 77°F
Heat Index
34°C / 94°F
Humidity
79%
Altimeter
29.88" Hg
Pressure
1011.92 hPa
Previous

2 hours ago

VTSB 180200Z 20007KT 160V220 9999 FEW020 28/25 Q1012
Observed
Sep-18 @ 02:00 UTC
Wind
  • 200° at 7 KTS
Visibility
10,000+ meters
Flight Rules
VFR
Cloud Levels
  • Few at 2,000' AGL
Temperature
28°C / 82°F
Dewpoint
25°C / 77°F
Heat Index
32°C / 90°F
Humidity
84%
Altimeter
29.88" Hg
Pressure
1011.92 hPa
Previous

3 hours ago

VTSB 180100Z 22003KT 9999 FEW020 SCT100 25/25 Q1011
Observed
Sep-18 @ 01:00 UTC
Wind
  • 220° at 3 KTS
Visibility
10,000+ meters
Flight Rules
VFR
Cloud Levels
  • Few at 2,000' AGL
  • Scattered at 10,000' AGL
Temperature
25°C / 77°F
Dewpoint
25°C / 77°F
Humidity
100%
Altimeter
29.85" Hg
Pressure
1010.92 hPa